Time;durP1;ratioP1;P1;durP2;ratioP2;P2;SDS_P1;SDS_P2;PMS_P1;PMS_P2;Temp;Humidity;BMP_temperature;BMP_pressure;BME280_temperature;BME280_humidity;BME280_pressure;Samples;Min_cycle;Max_cycle;Signal;HPM_P1;HPM_P2
2022/01/17 00:02:41;;;;;;;49.37;18.43;;;;;;;;;;6235300;23;20211;-90
2022/01/17 00:05:47;;;;;;;45.53;17.93;;;;;;;;;;6235421;23;20166;-90
2022/01/17 00:08:59;;;;;;;46.90;17.33;;;;;;;;;;6234383;23;20167;-91
2022/01/17 00:12:05;;;;;;;45.60;17.50;;;;;;;;;;6234387;23;20263;-90
2022/01/17 00:15:17;;;;;;;40.17;16.53;;;;;;;;;;6235795;23;20270;-90
2022/01/17 00:18:30;;;;;;;44.23;17.97;;;;;;;;;;6235006;23;20619;-91
2022/01/17 00:21:37;;;;;;;40.43;16.80;;;;;;;;;;6235767;23;20174;-91
2022/01/17 00:24:49;;;;;;;40.10;16.80;;;;;;;;;;6235986;23;20238;-90
2022/01/17 00:27:57;;;;;;;38.77;15.63;;;;;;;;;;6236987;23;20251;-91
2022/01/17 00:31:04;;;;;;;49.97;19.43;;;;;;;;;;6237003;23;20240;-91
2022/01/17 00:38:07;;;;;;;49.07;18.87;;;;;;;;;;6236574;23;20212;-91
2022/01/17 00:44:33;;;;;;;48.30;18.87;;;;;;;;;;6234306;23;20167;-90
2022/01/17 00:47:40;;;;;;;42.43;17.73;;;;;;;;;;6234805;23;20166;-91
2022/01/17 00:50:47;;;;;;;39.83;16.30;;;;;;;;;;6236984;23;20167;-92
2022/01/17 00:53:53;;;;;;;35.97;15.23;;;;;;;;;;6237027;23;20175;-91
2022/01/17 00:57:00;;;;;;;41.33;16.40;;;;;;;;;;6240722;23;20146;-91
2022/01/17 01:00:06;;;;;;;41.37;17.43;;;;;;;;;;6239783;23;20194;-92
2022/01/17 01:03:21;;;;;;;44.60;17.73;;;;;;;;;;6239068;23;20171;-90
2022/01/17 01:06:26;;;;;;;40.20;16.93;;;;;;;;;;6240106;23;20174;-91
2022/01/17 01:09:39;;;;;;;44.17;16.47;;;;;;;;;;6237889;23;20175;-91
2022/01/17 01:12:49;;;;;;;44.30;18.30;;;;;;;;;;6238999;23;20214;-91
2022/01/17 01:29:23;;;;;;;40.60;16.23;;;;;;;;;;6236314;23;20236;-92
2022/01/17 01:32:36;;;;;;;39.83;16.63;;;;;;;;;;6234587;23;20247;-91
2022/01/17 01:39:35;;;;;;;38.67;14.63;;;;;;;;;;6237924;23;20163;-92
2022/01/17 01:42:41;;;;;;;36.53;15.37;;;;;;;;;;6237606;23;20179;-91
2022/01/17 01:45:49;;;;;;;39.33;15.90;;;;;;;;;;6235747;23;20167;-91
2022/01/17 01:48:55;;;;;;;37.00;15.80;;;;;;;;;;6237614;23;20163;-92
2022/01/17 01:52:01;;;;;;;40.10;16.53;;;;;;;;;;6234830;23;20191;-93
2022/01/17 01:55:07;;;;;;;41.67;17.10;;;;;;;;;;6235435;23;20230;-92
2022/01/17 01:58:15;;;;;;;37.87;15.97;;;;;;;;;;6234897;23;20182;-91
2022/01/17 02:01:22;;;;;;;34.60;14.80;;;;;;;;;;6233661;23;20175;-92
2022/01/17 02:04:27;;;;;;;36.33;15.43;;;;;;;;;;6234855;23;20198;-93
2022/01/17 02:07:32;;;;;;;37.80;15.40;;;;;;;;;;6234660;23;20830;-92
2022/01/17 02:10:38;;;;;;;38.67;15.20;;;;;;;;;;6234051;23;20171;-91
2022/01/17 02:13:43;;;;;;;36.40;15.33;;;;;;;;;;6232011;23;20171;-92
2022/01/17 02:16:51;;;;;;;42.43;15.70;;;;;;;;;;6233051;23;20163;-91
2022/01/17 02:20:05;;;;;;;34.13;15.43;;;;;;;;;;6234322;23;20215;-91
2022/01/17 02:23:11;;;;;;;39.37;16.00;;;;;;;;;;6233504;23;20247;-91
2022/01/17 02:26:17;;;;;;;38.80;16.73;;;;;;;;;;6235338;23;20194;-90
2022/01/17 02:29:22;;;;;;;41.63;16.63;;;;;;;;;;6234934;23;20171;-90
2022/01/17 02:32:28;;;;;;;38.60;15.40;;;;;;;;;;6233722;23;20202;-92
2022/01/17 02:35:35;;;;;;;42.67;15.50;;;;;;;;;;6232993;23;20151;-91
2022/01/17 02:38:40;;;;;;;35.97;15.43;;;;;;;;;;6232846;23;20202;-92
2022/01/17 02:41:49;;;;;;;35.03;14.03;;;;;;;;;;6233737;23;20172;-91
2022/01/17 02:44:59;;;;;;;36.17;15.37;;;;;;;;;;6230729;23;20171;-91
2022/01/17 02:48:06;;;;;;;33.00;14.80;;;;;;;;;;6231331;23;20246;-93
2022/01/17 02:51:13;;;;;;;36.80;15.83;;;;;;;;;;6231432;23;20199;-91
2022/01/17 02:54:19;;;;;;;38.60;15.53;;;;;;;;;;6231900;23;20179;-91
2022/01/17 02:57:25;;;;;;;45.03;17.47;;;;;;;;;;6230918;23;20499;-91
2022/01/17 03:00:30;;;;;;;34.90;14.60;;;;;;;;;;6230685;23;20610;-90
2022/01/17 03:03:35;;;;;;;36.77;14.87;;;;;;;;;;6229891;23;20222;-91
2022/01/17 03:06:42;;;;;;;35.77;15.07;;;;;;;;;;6229391;23;20191;-90
2022/01/17 03:10:01;;;;;;;39.13;15.47;;;;;;;;;;6228829;23;20175;-91
2022/01/17 03:13:06;;;;;;;34.57;15.30;;;;;;;;;;6229838;23;20203;-91
2022/01/17 03:16:14;;;;;;;36.30;15.67;;;;;;;;;;6230158;23;20185;-91
2022/01/17 03:19:19;;;;;;;34.00;15.37;;;;;;;;;;6229347;23;20167;-91
2022/01/17 03:22:25;;;;;;;36.07;15.50;;;;;;;;;;6231347;23;20245;-92
2022/01/17 03:25:30;;;;;;;34.83;14.50;;;;;;;;;;6232439;23;20201;-91
2022/01/17 03:28:35;;;;;;;38.77;15.43;;;;;;;;;;6233031;23;20572;-91
2022/01/17 03:31:41;;;;;;;41.30;15.73;;;;;;;;;;6231486;23;20166;-91
2022/01/17 03:34:47;;;;;;;37.77;15.87;;;;;;;;;;6231189;23;20216;-92
2022/01/17 03:37:54;;;;;;;36.33;15.57;;;;;;;;;;6230075;23;20499;-90
2022/01/17 03:41:00;;;;;;;37.47;15.73;;;;;;;;;;6229146;23;20167;-91
2022/01/17 03:44:05;;;;;;;38.57;15.93;;;;;;;;;;6232516;23;20179;-92
2022/01/17 03:47:10;;;;;;;35.07;15.40;;;;;;;;;;6232387;23;20167;-90
2022/01/17 03:50:17;;;;;;;35.97;14.70;;;;;;;;;;6234468;23;20171;-91
2022/01/17 03:53:23;;;;;;;34.40;14.77;;;;;;;;;;6233346;23;20267;-91
2022/01/17 03:56:29;;;;;;;29.63;13.07;;;;;;;;;;6233393;23;20183;-91
2022/01/17 03:59:34;;;;;;;30.50;12.77;;;;;;;;;;6232737;23;20190;-90
2022/01/17 04:02:40;;;;;;;21.93;10.20;;;;;;;;;;6233527;23;20187;-91
2022/01/17 04:05:47;;;;;;;23.33;10.07;;;;;;;;;;6233875;23;20205;-91
2022/01/17 04:08:55;;;;;;;22.50;9.17;;;;;;;;;;6233507;23;20233;-90
2022/01/17 04:12:00;;;;;;;19.57;8.50;;;;;;;;;;6233988;23;20155;-90
2022/01/17 04:15:32;;;;;;;21.60;9.50;;;;;;;;;;6233543;23;20162;-91
2022/01/17 04:18:37;;;;;;;23.67;9.33;;;;;;;;;;6235077;23;20187;-92
2022/01/17 04:21:45;;;;;;;22.50;9.67;;;;;;;;;;6234416;23;20171;-90
2022/01/17 04:24:51;;;;;;;21.63;9.63;;;;;;;;;;6233781;23;20226;-91
2022/01/17 04:27:56;;;;;;;21.00;9.97;;;;;;;;;;6232509;23;20171;-91
2022/01/17 04:31:02;;;;;;;22.77;10.00;;;;;;;;;;6233955;23;20158;-91
2022/01/17 04:34:07;;;;;;;19.37;9.47;;;;;;;;;;6235317;23;20246;-92
2022/01/17 04:37:12;;;;;;;23.17;9.87;;;;;;;;;;6234446;23;20167;-92
2022/01/17 04:40:23;;;;;;;25.70;10.73;;;;;;;;;;6234578;23;20175;-91
2022/01/17 04:43:45;;;;;;;22.23;9.60;;;;;;;;;;6234172;23;20200;-90
2022/01/17 04:46:51;;;;;;;24.33;10.03;;;;;;;;;;6234342;23;20155;-92
2022/01/17 04:49:56;;;;;;;23.50;9.50;;;;;;;;;;6234491;23;20238;-92
2022/01/17 04:53:01;;;;;;;21.73;9.67;;;;;;;;;;6233613;23;20194;-93
2022/01/17 04:56:08;;;;;;;19.17;8.67;;;;;;;;;;6232333;23;20218;-92
2022/01/17 04:59:13;;;;;;;20.37;9.53;;;;;;;;;;6231337;23;20150;-91
2022/01/17 05:02:53;;;;;;;20.70;9.90;;;;;;;;;;6233210;23;20231;-91
2022/01/17 05:05:59;;;;;;;21.67;9.23;;;;;;;;;;6231810;23;20214;-92
2022/01/17 05:09:04;;;;;;;22.37;9.67;;;;;;;;;;6233057;23;20163;-91
2022/01/17 05:12:13;;;;;;;21.97;10.40;;;;;;;;;;6232132;23;20194;-91
2022/01/17 05:16:05;;;;;;;25.40;10.27;;;;;;;;;;6233651;23;20237;-91
2022/01/17 05:22:34;;;;;;;24.83;9.40;;;;;;;;;;6232348;23;20194;-93
2022/01/17 05:25:40;;;;;;;28.40;12.07;;;;;;;;;;6230574;23;20178;-92
2022/01/17 05:28:46;;;;;;;25.57;10.77;;;;;;;;;;6230634;23;20188;-90
2022/01/17 05:31:52;;;;;;;22.27;10.43;;;;;;;;;;6232159;23;20171;-91
2022/01/17 05:34:57;;;;;;;28.27;10.80;;;;;;;;;;6231352;23;20308;-91
2022/01/17 05:38:02;;;;;;;27.10;11.47;;;;;;;;;;6231057;23;20171;-92
2022/01/17 05:41:09;;;;;;;23.03;10.50;;;;;;;;;;6232119;23;20167;-92
2022/01/17 05:44:16;;;;;;;23.23;10.97;;;;;;;;;;6233047;23;20163;-92
2022/01/17 05:47:21;;;;;;;27.93;11.67;;;;;;;;;;6233100;23;20166;-92
2022/01/17 05:50:27;;;;;;;29.33;11.17;;;;;;;;;;6233710;23;20180;-92
2022/01/17 05:53:32;;;;;;;29.13;11.47;;;;;;;;;;6235068;23;20195;-92
2022/01/17 05:56:37;;;;;;;22.63;10.00;;;;;;;;;;6234989;23;20167;-91
2022/01/17 05:59:44;;;;;;;25.07;10.90;;;;;;;;;;6234348;23;20178;-90
2022/01/17 06:02:55;;;;;;;26.13;10.57;;;;;;;;;;6174027;22;20266;-89
2022/01/17 06:20:43;;;;;;;31.10;13.00;;;;;;;;;;6228617;22;20207;-91
2022/01/17 06:23:50;;;;;;;30.23;12.40;;;;;;;;;;6248224;22;20205;-91
2022/01/17 06:29:57;;;;;;;32.67;13.80;;;;;;;;;;6219483;22;20198;-90
2022/01/17 06:33:03;;;;;;;33.53;14.07;;;;;;;;;;6248251;23;20194;-91
2022/01/17 06:36:12;;;;;;;34.57;13.60;;;;;;;;;;6248382;23;20266;-89
2022/01/17 06:39:21;;;;;;;34.37;14.03;;;;;;;;;;6249546;22;20170;-91
2022/01/17 06:42:26;;;;;;;33.27;13.67;;;;;;;;;;6244905;22;20186;-91
2022/01/17 06:45:32;;;;;;;32.60;12.63;;;;;;;;;;6247183;23;20186;-91
2022/01/17 06:48:37;;;;;;;37.40;13.63;;;;;;;;;;6244702;23;20154;-91
2022/01/17 06:51:45;;;;;;;32.40;13.43;;;;;;;;;;6246770;23;20166;-92
2022/01/17 06:54:50;;;;;;;33.73;14.13;;;;;;;;;;6246653;22;20185;-90
2022/01/17 06:57:55;;;;;;;37.60;13.70;;;;;;;;;;6247488;23;20151;-91
2022/01/17 07:01:00;;;;;;;39.40;13.70;;;;;;;;;;6249924;22;20166;-91
2022/01/17 07:07:30;;;;;;;33.20;13.50;;;;;;;;;;6249216;23;20167;-91
2022/01/17 07:10:35;;;;;;;33.17;13.83;;;;;;;;;;6247344;22;20186;-91
2022/01/17 07:13:41;;;;;;;32.03;13.37;;;;;;;;;;6247770;22;20186;-91
2022/01/17 07:16:50;;;;;;;37.37;15.10;;;;;;;;;;6248115;23;20170;-91
2022/01/17 07:19:58;;;;;;;33.20;13.70;;;;;;;;;;6248912;22;20167;-90
2022/01/17 07:23:05;;;;;;;37.53;15.73;;;;;;;;;;6246237;23;20174;-90
2022/01/17 07:26:11;;;;;;;33.63;14.20;;;;;;;;;;6246683;22;20158;-92
2022/01/17 07:29:16;;;;;;;36.87;14.37;;;;;;;;;;6244859;23;20209;-91
2022/01/17 07:32:21;;;;;;;29.93;13.47;;;;;;;;;;6246086;23;20162;-91
2022/01/17 07:35:26;;;;;;;36.23;13.83;;;;;;;;;;6247835;23;20174;-90
2022/01/17 07:38:33;;;;;;;36.53;14.00;;;;;;;;;;6246022;22;20215;-91
2022/01/17 07:41:38;;;;;;;34.33;13.63;;;;;;;;;;6247590;22;20174;-91
2022/01/17 07:44:52;;;;;;;32.97;12.93;;;;;;;;;;6247789;22;20163;-91
2022/01/17 07:48:22;;;;;;;37.53;14.17;;;;;;;;;;6248825;22;20167;-92
2022/01/17 07:51:28;;;;;;;28.47;11.60;;;;;;;;;;6248461;23;20498;-89
2022/01/17 07:54:37;;;;;;;32.77;11.67;;;;;;;;;;6246122;23;20245;-91
2022/01/17 07:57:43;;;;;;;26.27;11.57;;;;;;;;;;6245837;22;20190;-92
2022/01/17 08:00:49;;;;;;;25.77;11.73;;;;;;;;;;6246067;23;20158;-93
2022/01/17 08:03:54;;;;;;;28.80;10.67;;;;;;;;;;6245903;23;20158;-93
2022/01/17 08:06:59;;;;;;;26.07;10.87;;;;;;;;;;6246435;23;20170;-92
2022/01/17 08:13:26;;;;;;;21.17;8.97;;;;;;;;;;6248424;23;20198;-92
2022/01/17 08:16:33;;;;;;;22.13;10.13;;;;;;;;;;6246486;22;20154;-90
2022/01/17 08:19:38;;;;;;;24.50;9.87;;;;;;;;;;6246778;22;20170;-92
2022/01/17 08:22:45;;;;;;;24.83;9.10;;;;;;;;;;6248666;23;20192;-92
2022/01/17 08:25:52;;;;;;;22.37;10.47;;;;;;;;;;6248940;23;20166;-92
2022/01/17 08:28:59;;;;;;;25.33;8.60;;;;;;;;;;6250031;22;20170;-91
2022/01/17 08:32:07;;;;;;;19.63;9.87;;;;;;;;;;6249020;22;20154;-92
2022/01/17 08:35:13;;;;;;;23.87;10.10;;;;;;;;;;6249080;22;20237;-91
2022/01/17 08:38:19;;;;;;;23.93;10.67;;;;;;;;;;6251030;23;20198;-93
2022/01/17 08:41:28;;;;;;;17.20;7.07;;;;;;;;;;6250337;22;20159;-91
2022/01/17 08:44:33;;;;;;;15.53;7.63;;;;;;;;;;6248980;23;20158;-90
2022/01/17 08:47:49;;;;;;;24.63;9.50;;;;;;;;;;6246653;22;20162;-91
2022/01/17 08:50:55;;;;;;;22.70;9.10;;;;;;;;;;6247086;22;20161;-92
2022/01/17 08:54:04;;;;;;;24.10;10.07;;;;;;;;;;6247272;23;20243;-92
2022/01/17 08:57:10;;;;;;;22.30;9.37;;;;;;;;;;6244359;23;20166;-91
2022/01/17 09:00:17;;;;;;;21.73;9.87;;;;;;;;;;6246140;22;20170;-91
2022/01/17 09:03:23;;;;;;;22.60;8.73;;;;;;;;;;6247097;22;20162;-90
2022/01/17 09:06:29;;;;;;;22.47;9.73;;;;;;;;;;6246150;23;20171;-91
2022/01/17 09:09:35;;;;;;;19.40;7.83;;;;;;;;;;6247912;22;20162;-92
2022/01/17 09:12:42;;;;;;;25.00;9.83;;;;;;;;;;6205421;23;20231;-92
2022/01/17 09:15:49;;;;;;;24.70;9.20;;;;;;;;;;6221973;23;20199;-92
2022/01/17 09:18:56;;;;;;;23.50;10.33;;;;;;;;;;6209547;23;20176;-91
2022/01/17 09:22:03;;;;;;;16.00;7.27;;;;;;;;;;6191247;23;20196;-93
2022/01/17 09:25:09;;;;;;;23.40;9.53;;;;;;;;;;6188785;23;20179;-92
2022/01/17 09:28:17;;;;;;;21.97;9.60;;;;;;;;;;6189741;23;20213;-91
2022/01/17 09:31:22;;;;;;;25.00;9.33;;;;;;;;;;6189283;23;20637;-91
2022/01/17 09:34:28;;;;;;;19.00;8.40;;;;;;;;;;6190546;23;20184;-93
2022/01/17 09:40:54;;;;;;;18.43;7.70;;;;;;;;;;6190496;23;20191;-92
2022/01/17 09:44:07;;;;;;;19.60;8.60;;;;;;;;;;6194135;23;20192;-91
2022/01/17 09:47:14;;;;;;;18.53;7.37;;;;;;;;;;6187850;23;20172;-92
2022/01/17 09:50:22;;;;;;;26.27;9.67;;;;;;;;;;6188899;23;20604;-91
2022/01/17 09:53:29;;;;;;;20.43;8.87;;;;;;;;;;6188037;23;20260;-90
2022/01/17 09:56:35;;;;;;;20.77;9.10;;;;;;;;;;6187709;23;20217;-91
2022/01/17 09:59:44;;;;;;;18.83;8.23;;;;;;;;;;6187995;23;20175;-92
2022/01/17 10:02:50;;;;;;;13.50;6.00;;;;;;;;;;6189788;23;20299;-91
2022/01/17 10:05:55;;;;;;;16.40;8.00;;;;;;;;;;6187804;23;20168;-90
2022/01/17 10:09:11;;;;;;;18.17;7.83;;;;;;;;;;6187657;23;20235;-91
2022/01/17 10:12:19;;;;;;;17.50;7.90;;;;;;;;;;6188600;23;20228;-91
2022/01/17 10:15:33;;;;;;;20.53;8.17;;;;;;;;;;6190421;23;20232;-91
2022/01/17 10:18:46;;;;;;;19.63;7.90;;;;;;;;;;6188004;23;20219;-91
2022/01/17 10:21:54;;;;;;;16.10;6.87;;;;;;;;;;6187779;23;20237;-91
2022/01/17 10:25:20;;;;;;;16.57;7.23;;;;;;;;;;6186511;23;20235;-90
2022/01/17 10:35:17;;;;;;;17.03;7.43;;;;;;;;;;6186137;23;20203;-90
2022/01/17 10:38:23;;;;;;;16.93;8.13;;;;;;;;;;6186791;23;20164;-90
2022/01/17 10:41:29;;;;;;;16.73;8.13;;;;;;;;;;6186201;23;20587;-91
2022/01/17 10:47:51;;;;;;;18.13;7.73;;;;;;;;;;6142786;23;20164;-92
2022/01/17 10:50:56;;;;;;;18.30;8.60;;;;;;;;;;6144948;23;20182;-92
2022/01/17 10:57:34;;;;;;;15.67;6.77;;;;;;;;;;6132881;23;20165;-94
2022/01/17 11:00:40;;;;;;;21.13;8.30;;;;;;;;;;6131419;23;20197;-92
2022/01/17 11:07:10;;;;;;;19.97;8.50;;;;;;;;;;6159506;22;20279;-91
2022/01/17 11:10:23;;;;;;;21.40;9.60;;;;;;;;;;6235808;23;20199;-91
2022/01/17 11:13:31;;;;;;;21.03;8.90;;;;;;;;;;6235623;23;20166;-93
2022/01/17 11:20:04;;;;;;;19.17;8.80;;;;;;;;;;6234554;23;20216;-90
2022/01/17 11:23:11;;;;;;;16.47;7.93;;;;;;;;;;6234546;23;20179;-92
2022/01/17 11:26:19;;;;;;;17.90;7.77;;;;;;;;;;6234439;23;20155;-92
2022/01/17 11:29:26;;;;;;;19.30;7.73;;;;;;;;;;6236124;23;20261;-91
2022/01/17 11:32:32;;;;;;;19.03;8.30;;;;;;;;;;6235555;23;20166;-91
2022/01/17 11:35:41;;;;;;;17.43;8.13;;;;;;;;;;6235923;23;20202;-92
2022/01/17 11:38:54;;;;;;;16.80;6.87;;;;;;;;;;6235229;23;20191;-92
2022/01/17 11:42:02;;;;;;;12.70;6.33;;;;;;;;;;6236202;23;20155;-93
2022/01/17 11:45:29;;;;;;;16.97;7.70;;;;;;;;;;6234997;23;20197;-93
2022/01/17 11:48:34;;;;;;;13.20;6.63;;;;;;;;;;6234074;23;20151;-92
2022/01/17 11:51:45;;;;;;;16.70;7.70;;;;;;;;;;6234225;23;20163;-91
2022/01/17 11:54:55;;;;;;;12.93;6.37;;;;;;;;;;6234217;23;20198;-92
2022/01/17 11:58:15;;;;;;;15.97;7.43;;;;;;;;;;6234954;23;20175;-92
2022/01/17 12:01:21;;;;;;;11.50;6.20;;;;;;;;;;6233701;23;20171;-90
2022/01/17 12:04:31;;;;;;;15.40;6.70;;;;;;;;;;6233687;23;20167;-93
2022/01/17 12:07:38;;;;;;;14.97;7.00;;;;;;;;;;6232301;23;20222;-90
2022/01/17 12:10:49;;;;;;;14.30;6.60;;;;;;;;;;6233415;23;20187;-91
2022/01/17 12:13:59;;;;;;;14.90;6.40;;;;;;;;;;6233158;23;20168;-91
2022/01/17 12:17:25;;;;;;;12.73;6.37;;;;;;;;;;6235613;23;20159;-92
2022/01/17 12:20:57;;;;;;;15.70;7.50;;;;;;;;;;6235713;23;20163;-93
2022/01/17 12:24:21;;;;;;;17.40;6.77;;;;;;;;;;6234758;23;20228;-91
2022/01/17 12:27:30;;;;;;;12.43;5.47;;;;;;;;;;6234774;23;20207;-91
2022/01/17 12:30:41;;;;;;;13.40;6.03;;;;;;;;;;6235292;23;20155;-92
2022/01/17 12:33:48;;;;;;;16.37;5.93;;;;;;;;;;6237988;23;20223;-91
2022/01/17 12:36:55;;;;;;;13.10;5.70;;;;;;;;;;6234600;23;20174;-92
2022/01/17 12:40:12;;;;;;;17.03;4.60;;;;;;;;;;6234300;23;20224;-92
2022/01/17 12:43:23;;;;;;;10.17;4.90;;;;;;;;;;6233235;23;20159;-92
2022/01/17 12:46:30;;;;;;;12.20;5.70;;;;;;;;;;6237808;23;20155;-92
2022/01/17 12:49:36;;;;;;;11.37;5.20;;;;;;;;;;6235123;23;20163;-91
2022/01/17 12:52:42;;;;;;;12.03;5.90;;;;;;;;;;6239101;23;20171;-92
2022/01/17 12:59:20;;;;;;;8.57;4.13;;;;;;;;;;6239525;23;20207;-92
2022/01/17 13:08:19;;;;;;;11.30;4.73;;;;;;;;;;6226284;22;20219;-91
2022/01/17 13:15:19;;;;;;;19.23;5.00;;;;;;;;;;6246009;22;20190;-93
2022/01/17 13:18:26;;;;;;;9.63;3.97;;;;;;;;;;6248050;22;20223;-90
2022/01/17 13:21:39;;;;;;;15.33;5.97;;;;;;;;;;6246430;23;20218;-92
2022/01/17 13:25:03;;;;;;;9.20;3.63;;;;;;;;;;6267075;22;20217;-92
2022/01/17 13:28:09;;;;;;;11.03;5.13;;;;;;;;;;6249784;22;20215;-92
2022/01/17 13:31:24;;;;;;;9.83;3.97;;;;;;;;;;6248039;22;20157;-91
2022/01/17 13:34:30;;;;;;;12.60;4.70;;;;;;;;;;6245868;23;20263;-92
2022/01/17 13:37:36;;;;;;;8.10;3.93;;;;;;;;;;6247461;23;20234;-91
2022/01/17 13:40:42;;;;;;;13.43;5.50;;;;;;;;;;6251150;23;20154;-91
2022/01/17 13:43:57;;;;;;;13.17;5.17;;;;;;;;;;6250767;22;20166;-91
2022/01/17 13:47:07;;;;;;;9.33;4.60;;;;;;;;;;6234045;23;20205;-92
2022/01/17 13:50:16;;;;;;;8.33;3.77;;;;;;;;;;6249850;22;20242;-90
2022/01/17 15:15:40;;;;;;;7.10;3.80;;;;;;;;;;6202197;23;20217;-91
2022/01/17 15:18:46;;;;;;;11.43;4.27;;;;;;;;;;6205217;23;20175;-90
2022/01/17 15:21:52;;;;;;;8.07;3.87;;;;;;;;;;6204300;23;20170;-91
2022/01/17 15:24:57;;;;;;;7.63;3.87;;;;;;;;;;6202193;23;20216;-91
2022/01/17 15:28:03;;;;;;;8.27;3.80;;;;;;;;;;6205056;23;20151;-90
2022/01/17 15:39:58;;;;;;;10.60;4.03;;;;;;;;;;6220646;22;20210;-90
2022/01/17 15:43:06;;;;;;;11.23;4.37;;;;;;;;;;6248529;22;20175;-90
2022/01/17 15:46:12;;;;;;;8.10;4.13;;;;;;;;;;6248302;22;20206;-91
2022/01/17 15:49:18;;;;;;;9.57;4.00;;;;;;;;;;6249900;22;20146;-91
2022/01/17 15:52:29;;;;;;;10.33;4.53;;;;;;;;;;6249282;23;20215;-91
2022/01/17 15:55:36;;;;;;;8.30;3.87;;;;;;;;;;6246886;23;20190;-91
2022/01/17 15:58:42;;;;;;;9.60;4.50;;;;;;;;;;6250339;22;20163;-93
2022/01/17 16:01:47;;;;;;;12.57;5.20;;;;;;;;;;6248795;22;20166;-93
2022/01/17 16:04:53;;;;;;;9.10;4.30;;;;;;;;;;6248479;22;20225;-90
2022/01/17 16:11:21;;;;;;;15.03;4.90;;;;;;;;;;6248161;22;20170;-89
2022/01/17 16:14:27;;;;;;;9.27;4.30;;;;;;;;;;6246563;23;20159;-92
2022/01/17 16:17:33;;;;;;;11.07;5.00;;;;;;;;;;6246696;22;20163;-90
2022/01/17 16:20:38;;;;;;;8.90;3.90;;;;;;;;;;6246837;22;20178;-92
2022/01/17 16:23:43;;;;;;;14.33;5.20;;;;;;;;;;6245248;23;20315;-93
2022/01/17 16:33:30;;;;;;;12.80;5.90;;;;;;;;;;6247818;22;20190;-91
2022/01/17 16:43:34;;;;;;;10.77;5.00;;;;;;;;;;6250013;22;20210;-92
2022/01/17 16:46:41;;;;;;;13.27;5.03;;;;;;;;;;6249817;22;20521;-92
2022/01/17 16:49:47;;;;;;;17.23;6.50;;;;;;;;;;6248579;22;20189;-92
2022/01/17 16:52:57;;;;;;;15.13;5.27;;;;;;;;;;6246470;23;20183;-91
2022/01/17 16:56:06;;;;;;;11.70;5.00;;;;;;;;;;6246729;22;20186;-91
2022/01/17 16:59:13;;;;;;;15.47;5.63;;;;;;;;;;6249671;22;20158;-91
2022/01/17 17:02:26;;;;;;;14.20;5.63;;;;;;;;;;6249641;22;20206;-90
2022/01/17 17:05:32;;;;;;;14.17;5.60;;;;;;;;;;6232631;23;20162;-92
2022/01/17 17:08:40;;;;;;;12.27;4.80;;;;;;;;;;6236266;22;20257;-93
2022/01/17 17:11:45;;;;;;;12.63;5.60;;;;;;;;;;6249614;23;20194;-92
2022/01/17 17:14:51;;;;;;;15.17;4.73;;;;;;;;;;6247590;22;20200;-92
2022/01/17 17:17:58;;;;;;;14.20;5.80;;;;;;;;;;6250075;22;20274;-91
2022/01/17 17:21:05;;;;;;;15.30;6.47;;;;;;;;;;6250866;23;20199;-91
2022/01/17 17:24:13;;;;;;;12.00;5.60;;;;;;;;;;6267849;22;20217;-92
2022/01/17 17:27:19;;;;;;;15.53;5.57;;;;;;;;;;6249596;22;20159;-92
2022/01/17 17:30:25;;;;;;;13.27;5.70;;;;;;;;;;6249253;22;20190;-91
2022/01/17 17:33:33;;;;;;;14.33;5.33;;;;;;;;;;6268420;22;20240;-91
2022/01/17 17:36:42;;;;;;;12.13;5.47;;;;;;;;;;6250371;22;20182;-93
2022/01/17 17:39:58;;;;;;;11.50;5.40;;;;;;;;;;6251708;23;20260;-93
2022/01/17 17:43:04;;;;;;;10.90;5.50;;;;;;;;;;6250751;22;20166;-93
2022/01/17 17:46:09;;;;;;;13.43;5.50;;;;;;;;;;6251478;22;20198;-92
2022/01/17 17:49:16;;;;;;;9.60;5.07;;;;;;;;;;6250572;22;20162;-91
2022/01/17 17:52:28;;;;;;;14.20;5.67;;;;;;;;;;6251723;23;20203;-89
2022/01/17 17:55:36;;;;;;;17.87;5.83;;;;;;;;;;6250654;23;20214;-90
2022/01/17 18:03:01;;;;;;;10.63;5.17;;;;;;;;;;6263537;22;20197;-92
2022/01/17 18:06:08;;;;;;;13.37;6.13;;;;;;;;;;6245737;22;20205;-92
2022/01/17 18:09:14;;;;;;;20.60;7.33;;;;;;;;;;6251174;22;20258;-91
2022/01/17 18:12:19;;;;;;;12.43;5.07;;;;;;;;;;6247373;22;20261;-92
2022/01/17 18:15:27;;;;;;;15.77;6.27;;;;;;;;;;6265145;22;20202;-92
2022/01/17 18:18:33;;;;;;;10.60;4.93;;;;;;;;;;6249020;23;20167;-92
2022/01/17 18:21:41;;;;;;;13.77;5.77;;;;;;;;;;6247826;23;20166;-92
2022/01/17 18:24:47;;;;;;;18.23;6.20;;;;;;;;;;6245509;22;20171;-91
2022/01/17 18:27:53;;;;;;;15.80;5.60;;;;;;;;;;6246385;22;20165;-91
2022/01/17 18:30:58;;;;;;;15.80;6.17;;;;;;;;;;6244892;22;20613;-91
2022/01/17 18:34:04;;;;;;;12.50;6.10;;;;;;;;;;6247067;23;20174;-90
2022/01/17 18:37:11;;;;;;;11.93;5.70;;;;;;;;;;6247843;23;20193;-90
2022/01/17 18:43:13;;;;;;;12.20;4.73;;;;;;;;;;6219969;22;20202;-91
2022/01/17 18:46:20;;;;;;;9.90;5.40;;;;;;;;;;6250387;22;20174;-91
2022/01/17 18:49:35;;;;;;;12.00;5.43;;;;;;;;;;6240616;22;20217;-92
2022/01/17 18:52:47;;;;;;;12.63;5.90;;;;;;;;;;6249391;23;20170;-91
2022/01/17 18:55:52;;;;;;;13.37;6.33;;;;;;;;;;6246779;23;20189;-92
2022/01/17 18:58:58;;;;;;;13.53;5.73;;;;;;;;;;6247807;22;20154;-91
2022/01/17 19:02:04;;;;;;;17.13;6.60;;;;;;;;;;6245571;23;20205;-92
2022/01/17 19:05:13;;;;;;;17.03;6.73;;;;;;;;;;6246294;23;20175;-91
2022/01/17 19:08:20;;;;;;;15.17;5.83;;;;;;;;;;6246342;23;20191;-92
2022/01/17 19:11:25;;;;;;;12.60;5.67;;;;;;;;;;6245754;23;20632;-91
2022/01/17 19:14:34;;;;;;;19.17;8.10;;;;;;;;;;6250587;22;20162;-91
2022/01/17 19:17:53;;;;;;;15.00;5.87;;;;;;;;;;6246112;22;20163;-91
2022/01/17 19:21:29;;;;;;;17.87;6.17;;;;;;;;;;6247536;22;20208;-91
2022/01/17 19:24:35;;;;;;;15.93;5.40;;;;;;;;;;6245750;22;20538;-90
2022/01/17 19:27:40;;;;;;;14.77;5.43;;;;;;;;;;6248334;22;20171;-91
2022/01/17 19:30:47;;;;;;;10.47;4.33;;;;;;;;;;6246554;22;20209;-91
2022/01/17 19:33:52;;;;;;;12.40;5.03;;;;;;;;;;6247747;22;20578;-91
2022/01/17 19:37:00;;;;;;;13.53;5.57;;;;;;;;;;6246860;22;20197;-93
2022/01/17 19:40:08;;;;;;;10.30;4.80;;;;;;;;;;6247615;23;20209;-90
2022/01/17 19:43:15;;;;;;;11.53;5.40;;;;;;;;;;6247516;23;20190;-91
2022/01/17 19:46:22;;;;;;;13.60;5.37;;;;;;;;;;6245657;23;20166;-90
2022/01/17 19:58:17;;;;;;;16.73;6.77;;;;;;;;;;6195090;22;20223;-91
2022/01/17 20:01:22;;;;;;;10.80;5.27;;;;;;;;;;6248569;22;20207;-92
2022/01/17 20:04:28;;;;;;;10.60;5.07;;;;;;;;;;6249617;22;20194;-92
2022/01/17 20:07:34;;;;;;;18.07;6.43;;;;;;;;;;6266285;22;20170;-92
2022/01/17 20:10:39;;;;;;;19.80;6.80;;;;;;;;;;6247247;22;20182;-92
2022/01/17 20:13:49;;;;;;;12.90;5.77;;;;;;;;;;6246990;22;20205;-91
2022/01/17 20:16:54;;;;;;;16.97;6.50;;;;;;;;;;6248171;23;20254;-92
2022/01/17 20:20:00;;;;;;;16.67;6.73;;;;;;;;;;6246976;22;20229;-92
2022/01/17 20:23:09;;;;;;;13.47;5.87;;;;;;;;;;6247935;22;20185;-91
2022/01/17 20:26:18;;;;;;;16.50;6.47;;;;;;;;;;6250620;23;20158;-91
2022/01/17 20:29:24;;;;;;;17.07;6.43;;;;;;;;;;6249870;22;20150;-92
2022/01/17 20:32:28;;;;;;;11.60;6.00;;;;;;;;;;6187359;22;20244;-92
2022/01/17 20:35:34;;;;;;;13.57;6.37;;;;;;;;;;6251392;22;20210;-90
2022/01/17 21:05:14;;;;;;;22.07;7.47;;;;;;;;;;6231675;22;20234;-89
2022/01/17 21:08:22;;;;;;;16.13;7.13;;;;;;;;;;6247800;23;20768;-91
2022/01/17 21:11:27;;;;;;;14.83;6.90;;;;;;;;;;6248502;22;20150;-92
2022/01/17 21:14:33;;;;;;;15.93;7.00;;;;;;;;;;6249490;22;20184;-93
2022/01/17 21:17:39;;;;;;;17.03;7.53;;;;;;;;;;6248974;23;20182;-93
2022/01/17 21:20:47;;;;;;;15.73;7.73;;;;;;;;;;6250673;23;20167;-91
2022/01/17 21:23:55;;;;;;;20.37;8.10;;;;;;;;;;6251144;23;20170;-91
2022/01/17 21:27:04;;;;;;;19.90;8.70;;;;;;;;;;6250219;22;20163;-91
2022/01/17 21:30:10;;;;;;;19.07;8.27;;;;;;;;;;6233276;23;20173;-93
2022/01/17 21:33:17;;;;;;;22.33;8.40;;;;;;;;;;6249701;22;20174;-91
2022/01/17 21:36:24;;;;;;;18.33;8.50;;;;;;;;;;6249314;23;20195;-90
2022/01/17 21:39:32;;;;;;;19.77;8.73;;;;;;;;;;6248926;23;20206;-91
2022/01/17 21:42:37;;;;;;;18.73;8.37;;;;;;;;;;6248155;22;20154;-92
2022/01/17 21:45:44;;;;;;;17.40;8.53;;;;;;;;;;6247510;22;20211;-92
2022/01/17 21:48:49;;;;;;;18.77;8.33;;;;;;;;;;6248400;22;20162;-93
2022/01/17 21:51:56;;;;;;;19.90;8.77;;;;;;;;;;6250082;23;20191;-92
2022/01/17 21:55:01;;;;;;;15.33;8.17;;;;;;;;;;6248112;22;20264;-91
2022/01/17 21:58:07;;;;;;;21.37;10.20;;;;;;;;;;6248726;23;20182;-91
2022/01/17 22:01:12;;;;;;;19.33;8.43;;;;;;;;;;6249043;23;20154;-91
2022/01/17 22:04:17;;;;;;;20.93;8.53;;;;;;;;;;6248028;22;20202;-91
2022/01/17 22:07:25;;;;;;;22.93;10.07;;;;;;;;;;6251198;23;20170;-89
2022/01/17 22:10:31;;;;;;;27.93;10.73;;;;;;;;;;6248297;23;20154;-92
2022/01/17 22:13:37;;;;;;;25.07;10.50;;;;;;;;;;6247933;23;20171;-92
2022/01/17 22:16:43;;;;;;;21.33;9.20;;;;;;;;;;6248042;23;20186;-94
2022/01/17 22:19:51;;;;;;;24.00;11.03;;;;;;;;;;6246919;23;20163;-92
2022/01/17 22:22:58;;;;;;;22.37;9.70;;;;;;;;;;6248906;22;20166;-93
2022/01/17 22:26:04;;;;;;;23.83;10.20;;;;;;;;;;6249015;23;20173;-92